Danzig, Poland
Current Conditions -  °F | °C
As of 6:30 PM on Sunday 21 Dec 2014 (Local Time) from EPGD Reporting Station
Scattered Clouds Scattered Clouds  
Wind Chill: 34°   Ceiling: Unl
Heat Index: 41°   Visibility: 6mi
Dew Point: 36°   Wind: 13mph
Humidity: 81%   Direction: 280°W
Pressure: 29.88"   Gusts: NA
Location:  54.38°N, 18.47°E
Report Text: EPGD 211630Z 28011KT 9999 SCT017 05/02 Q1012
Loading
Personal Weather Stations






























Interactive Weather Map New forecast layout! Learn more

10-Day Weather Forecast

Advertisements
Track Severe Weather on mobile